sensor_id;sensor_type;location;lat;lon;timestamp;P1;durP1;ratioP1;P2;durP2;ratioP2
8881;SDS011;4477;48.736;9.176;2023-03-01T00:00:03;22.70;;;20.07;;
8881;SDS011;4477;48.736;9.176;2023-03-01T00:02:30;21.13;;;18.93;;
8881;SDS011;4477;48.736;9.176;2023-03-01T00:04:57;23.40;;;19.60;;
8881;SDS011;4477;48.736;9.176;2023-03-01T00:07:26;21.73;;;19.17;;
8881;SDS011;4477;48.736;9.176;2023-03-01T00:09:53;23.23;;;20.70;;
8881;SDS011;4477;48.736;9.176;2023-03-01T00:12:20;24.20;;;20.87;;
8881;SDS011;4477;48.736;9.176;2023-03-01T00:14:47;22.77;;;20.27;;
8881;SDS011;4477;48.736;9.176;2023-03-01T00:17:14;22.80;;;20.17;;
8881;SDS011;4477;48.736;9.176;2023-03-01T00:19:42;23.57;;;20.13;;
8881;SDS011;4477;48.736;9.176;2023-03-01T00:22:09;25.30;;;21.03;;
8881;SDS011;4477;48.736;9.176;2023-03-01T00:24:37;25.70;;;20.67;;
8881;SDS011;4477;48.736;9.176;2023-03-01T00:27:04;25.03;;;19.80;;
8881;SDS011;4477;48.736;9.176;2023-03-01T00:29:32;24.13;;;20.77;;
8881;SDS011;4477;48.736;9.176;2023-03-01T00:31:59;25.83;;;20.80;;
8881;SDS011;4477;48.736;9.176;2023-03-01T00:34:27;26.03;;;22.00;;
8881;SDS011;4477;48.736;9.176;2023-03-01T00:36:54;27.27;;;20.77;;
8881;SDS011;4477;48.736;9.176;2023-03-01T00:39:30;26.43;;;20.70;;
8881;SDS011;4477;48.736;9.176;2023-03-01T00:41:59;25.77;;;21.37;;
8881;SDS011;4477;48.736;9.176;2023-03-01T00:44:26;26.17;;;21.50;;
8881;SDS011;4477;48.736;9.176;2023-03-01T00:46:53;26.93;;;22.57;;
8881;SDS011;4477;48.736;9.176;2023-03-01T00:49:20;25.93;;;20.97;;
8881;SDS011;4477;48.736;9.176;2023-03-01T00:51:49;24.83;;;21.17;;
8881;SDS011;4477;48.736;9.176;2023-03-01T00:54:16;26.20;;;21.73;;
8881;SDS011;4477;48.736;9.176;2023-03-01T00:56:43;25.63;;;21.20;;
8881;SDS011;4477;48.736;9.176;2023-03-01T00:59:11;24.80;;;21.00;;
8881;SDS011;4477;48.736;9.176;2023-03-01T01:01:39;28.70;;;21.47;;
8881;SDS011;4477;48.736;9.176;2023-03-01T01:04:06;31.80;;;22.07;;
8881;SDS011;4477;48.736;9.176;2023-03-01T01:06:35;28.03;;;23.00;;
8881;SDS011;4477;48.736;9.176;2023-03-01T01:09:02;25.70;;;21.30;;
8881;SDS011;4477;48.736;9.176;2023-03-01T01:11:30;27.50;;;21.70;;
8881;SDS011;4477;48.736;9.176;2023-03-01T01:13:57;28.70;;;22.27;;
8881;SDS011;4477;48.736;9.176;2023-03-01T01:16:26;28.30;;;22.07;;
8881;SDS011;4477;48.736;9.176;2023-03-01T01:18:54;26.80;;;22.40;;
8881;SDS011;4477;48.736;9.176;2023-03-01T01:21:22;29.17;;;22.87;;
8881;SDS011;4477;48.736;9.176;2023-03-01T01:23:49;25.10;;;21.83;;
8881;SDS011;4477;48.736;9.176;2023-03-01T01:26:17;29.60;;;22.63;;
8881;SDS011;4477;48.736;9.176;2023-03-01T01:28:45;27.87;;;22.30;;
8881;SDS011;4477;48.736;9.176;2023-03-01T01:31:12;26.40;;;21.93;;
8881;SDS011;4477;48.736;9.176;2023-03-01T01:33:40;26.27;;;22.47;;
8881;SDS011;4477;48.736;9.176;2023-03-01T01:36:08;25.37;;;21.77;;
8881;SDS011;4477;48.736;9.176;2023-03-01T01:38:35;28.20;;;22.83;;
8881;SDS011;4477;48.736;9.176;2023-03-01T01:41:03;28.83;;;23.40;;
8881;SDS011;4477;48.736;9.176;2023-03-01T01:43:31;27.60;;;22.23;;
8881;SDS011;4477;48.736;9.176;2023-03-01T01:45:58;26.50;;;22.27;;
8881;SDS011;4477;48.736;9.176;2023-03-01T01:48:28;29.83;;;22.93;;
8881;SDS011;4477;48.736;9.176;2023-03-01T01:51:07;29.73;;;23.43;;
8881;SDS011;4477;48.736;9.176;2023-03-01T01:53:35;26.67;;;22.47;;
8881;SDS011;4477;48.736;9.176;2023-03-01T01:56:03;28.33;;;23.63;;
8881;SDS011;4477;48.736;9.176;2023-03-01T01:58:32;27.33;;;22.57;;
8881;SDS011;4477;48.736;9.176;2023-03-01T02:00:59;26.83;;;22.07;;
8881;SDS011;4477;48.736;9.176;2023-03-01T02:03:28;26.07;;;21.90;;
8881;SDS011;4477;48.736;9.176;2023-03-01T02:05:59;26.10;;;22.27;;
8881;SDS011;4477;48.736;9.176;2023-03-01T02:08:30;26.47;;;22.17;;
8881;SDS011;4477;48.736;9.176;2023-03-01T02:11:16;24.67;;;21.50;;
8881;SDS011;4477;48.736;9.176;2023-03-01T02:13:44;23.67;;;21.17;;
8881;SDS011;4477;48.736;9.176;2023-03-01T02:16:12;28.47;;;23.30;;
8881;SDS011;4477;48.736;9.176;2023-03-01T02:18:40;24.70;;;21.97;;
8881;SDS011;4477;48.736;9.176;2023-03-01T02:21:11;26.73;;;21.90;;
8881;SDS011;4477;48.736;9.176;2023-03-01T02:23:40;24.73;;;21.07;;
8881;SDS011;4477;48.736;9.176;2023-03-01T02:26:11;25.23;;;21.40;;
8881;SDS011;4477;48.736;9.176;2023-03-01T02:28:40;24.90;;;21.07;;
8881;SDS011;4477;48.736;9.176;2023-03-01T02:31:09;26.33;;;21.27;;
8881;SDS011;4477;48.736;9.176;2023-03-01T02:33:55;24.53;;;21.80;;
8881;SDS011;4477;48.736;9.176;2023-03-01T02:36:23;23.50;;;21.00;;
8881;SDS011;4477;48.736;9.176;2023-03-01T02:38:51;24.20;;;21.10;;
8881;SDS011;4477;48.736;9.176;2023-03-01T02:41:19;24.93;;;21.37;;
8881;SDS011;4477;48.736;9.176;2023-03-01T02:43:48;23.60;;;21.10;;
8881;SDS011;4477;48.736;9.176;2023-03-01T02:46:16;24.50;;;21.50;;
8881;SDS011;4477;48.736;9.176;2023-03-01T02:48:45;25.23;;;19.97;;
8881;SDS011;4477;48.736;9.176;2023-03-01T02:51:17;23.80;;;21.20;;
8881;SDS011;4477;48.736;9.176;2023-03-01T02:53:48;22.87;;;20.43;;
8881;SDS011;4477;48.736;9.176;2023-03-01T02:56:19;23.40;;;20.97;;
8881;SDS011;4477;48.736;9.176;2023-03-01T02:58:48;23.43;;;20.93;;
8881;SDS011;4477;48.736;9.176;2023-03-01T03:01:16;25.93;;;21.57;;
8881;SDS011;4477;48.736;9.176;2023-03-01T03:03:43;23.30;;;20.73;;
8881;SDS011;4477;48.736;9.176;2023-03-01T03:06:11;25.67;;;21.77;;
8881;SDS011;4477;48.736;9.176;2023-03-01T03:08:38;27.53;;;20.57;;
8881;SDS011;4477;48.736;9.176;2023-03-01T03:11:05;23.93;;;20.97;;
8881;SDS011;4477;48.736;9.176;2023-03-01T03:13:32;22.63;;;20.33;;
8881;SDS011;4477;48.736;9.176;2023-03-01T03:16:01;25.37;;;21.20;;
8881;SDS011;4477;48.736;9.176;2023-03-01T03:18:29;25.87;;;22.20;;
8881;SDS011;4477;48.736;9.176;2023-03-01T03:20:56;25.93;;;21.90;;
8881;SDS011;4477;48.736;9.176;2023-03-01T03:23:23;24.10;;;21.03;;
8881;SDS011;4477;48.736;9.176;2023-03-01T03:25:51;24.30;;;21.63;;
8881;SDS011;4477;48.736;9.176;2023-03-01T03:28:18;24.17;;;21.67;;
8881;SDS011;4477;48.736;9.176;2023-03-01T03:30:45;24.93;;;21.47;;
8881;SDS011;4477;48.736;9.176;2023-03-01T03:33:14;27.57;;;22.00;;
8881;SDS011;4477;48.736;9.176;2023-03-01T03:35:42;23.67;;;21.03;;
8881;SDS011;4477;48.736;9.176;2023-03-01T03:38:10;24.00;;;21.40;;
8881;SDS011;4477;48.736;9.176;2023-03-01T03:40:44;24.60;;;21.63;;
8881;SDS011;4477;48.736;9.176;2023-03-01T03:43:12;25.43;;;22.07;;
8881;SDS011;4477;48.736;9.176;2023-03-01T03:45:40;27.83;;;21.73;;
8881;SDS011;4477;48.736;9.176;2023-03-01T03:48:08;24.80;;;22.17;;
8881;SDS011;4477;48.736;9.176;2023-03-01T03:50:37;25.40;;;22.03;;
8881;SDS011;4477;48.736;9.176;2023-03-01T03:53:05;25.83;;;21.20;;
8881;SDS011;4477;48.736;9.176;2023-03-01T03:55:33;27.40;;;22.90;;
8881;SDS011;4477;48.736;9.176;2023-03-01T03:58:00;25.80;;;21.63;;
8881;SDS011;4477;48.736;9.176;2023-03-01T04:00:32;25.10;;;21.43;;
8881;SDS011;4477;48.736;9.176;2023-03-01T04:02:59;25.97;;;21.67;;
8881;SDS011;4477;48.736;9.176;2023-03-01T04:05:26;26.83;;;22.33;;
8881;SDS011;4477;48.736;9.176;2023-03-01T04:07:55;24.80;;;22.10;;
8881;SDS011;4477;48.736;9.176;2023-03-01T04:10:33;25.80;;;22.03;;
8881;SDS011;4477;48.736;9.176;2023-03-01T04:13:00;24.73;;;22.13;;
8881;SDS011;4477;48.736;9.176;2023-03-01T04:15:27;24.20;;;21.60;;
8881;SDS011;4477;48.736;9.176;2023-03-01T04:17:54;27.27;;;23.57;;
8881;SDS011;4477;48.736;9.176;2023-03-01T04:20:22;27.03;;;22.97;;
8881;SDS011;4477;48.736;9.176;2023-03-01T04:22:50;24.87;;;21.93;;
8881;SDS011;4477;48.736;9.176;2023-03-01T04:25:19;25.40;;;22.70;;
8881;SDS011;4477;48.736;9.176;2023-03-01T04:27:46;25.23;;;22.40;;
8881;SDS011;4477;48.736;9.176;2023-03-01T04:30:14;26.00;;;22.27;;
8881;SDS011;4477;48.736;9.176;2023-03-01T04:32:41;25.03;;;22.33;;
8881;SDS011;4477;48.736;9.176;2023-03-01T04:35:08;25.50;;;22.70;;
8881;SDS011;4477;48.736;9.176;2023-03-01T04:37:35;27.70;;;22.87;;
8881;SDS011;4477;48.736;9.176;2023-03-01T04:40:03;28.13;;;23.40;;
8881;SDS011;4477;48.736;9.176;2023-03-01T04:42:39;26.57;;;23.60;;
8881;SDS011;4477;48.736;9.176;2023-03-01T04:45:07;26.60;;;22.13;;
8881;SDS011;4477;48.736;9.176;2023-03-01T04:47:38;26.57;;;22.47;;
8881;SDS011;4477;48.736;9.176;2023-03-01T04:50:05;24.60;;;22.00;;
8881;SDS011;4477;48.736;9.176;2023-03-01T04:52:33;27.50;;;22.13;;
8881;SDS011;4477;48.736;9.176;2023-03-01T04:55:00;24.67;;;22.07;;
8881;SDS011;4477;48.736;9.176;2023-03-01T04:57:28;26.23;;;22.40;;
8881;SDS011;4477;48.736;9.176;2023-03-01T04:59:57;26.73;;;22.83;;
8881;SDS011;4477;48.736;9.176;2023-03-01T05:02:24;25.00;;;22.40;;
8881;SDS011;4477;48.736;9.176;2023-03-01T05:04:51;24.87;;;21.00;;
8881;SDS011;4477;48.736;9.176;2023-03-01T05:07:22;26.27;;;22.83;;
8881;SDS011;4477;48.736;9.176;2023-03-01T05:09:51;27.27;;;23.27;;
8881;SDS011;4477;48.736;9.176;2023-03-01T05:12:19;28.20;;;23.17;;
8881;SDS011;4477;48.736;9.176;2023-03-01T05:14:46;28.70;;;23.20;;
8881;SDS011;4477;48.736;9.176;2023-03-01T05:17:14;26.27;;;23.47;;
8881;SDS011;4477;48.736;9.176;2023-03-01T05:19:42;26.03;;;23.23;;
8881;SDS011;4477;48.736;9.176;2023-03-01T05:22:09;24.87;;;22.00;;
8881;SDS011;4477;48.736;9.176;2023-03-01T05:24:36;27.63;;;23.67;;
8881;SDS011;4477;48.736;9.176;2023-03-01T05:27:03;25.33;;;22.63;;
8881;SDS011;4477;48.736;9.176;2023-03-01T05:29:31;26.37;;;22.77;;
8881;SDS011;4477;48.736;9.176;2023-03-01T05:32:00;27.93;;;21.97;;
8881;SDS011;4477;48.736;9.176;2023-03-01T05:34:29;25.73;;;22.33;;
8881;SDS011;4477;48.736;9.176;2023-03-01T05:36:57;28.50;;;23.07;;
8881;SDS011;4477;48.736;9.176;2023-03-01T05:39:25;25.53;;;22.10;;
8881;SDS011;4477;48.736;9.176;2023-03-01T05:41:52;26.70;;;23.40;;
8881;SDS011;4477;48.736;9.176;2023-03-01T05:44:20;28.53;;;23.87;;
8881;SDS011;4477;48.736;9.176;2023-03-01T05:46:47;26.70;;;23.67;;
8881;SDS011;4477;48.736;9.176;2023-03-01T05:49:14;27.47;;;23.70;;
8881;SDS011;4477;48.736;9.176;2023-03-01T05:51:46;27.63;;;23.93;;
8881;SDS011;4477;48.736;9.176;2023-03-01T05:54:14;27.77;;;23.33;;
8881;SDS011;4477;48.736;9.176;2023-03-01T05:56:41;26.50;;;23.67;;
8881;SDS011;4477;48.736;9.176;2023-03-01T05:59:08;27.03;;;23.20;;
8881;SDS011;4477;48.736;9.176;2023-03-01T06:01:35;28.10;;;23.73;;
8881;SDS011;4477;48.736;9.176;2023-03-01T06:04:03;26.90;;;23.70;;
8881;SDS011;4477;48.736;9.176;2023-03-01T06:06:34;27.27;;;23.87;;
8881;SDS011;4477;48.736;9.176;2023-03-01T06:09:04;28.37;;;23.50;;
8881;SDS011;4477;48.736;9.176;2023-03-01T06:11:33;28.23;;;24.53;;
8881;SDS011;4477;48.736;9.176;2023-03-01T06:14:00;28.90;;;24.67;;
8881;SDS011;4477;48.736;9.176;2023-03-01T06:16:27;31.40;;;25.07;;
8881;SDS011;4477;48.736;9.176;2023-03-01T06:18:54;27.97;;;24.27;;
8881;SDS011;4477;48.736;9.176;2023-03-01T06:21:21;25.87;;;23.13;;
8881;SDS011;4477;48.736;9.176;2023-03-01T06:23:49;27.97;;;24.23;;
8881;SDS011;4477;48.736;9.176;2023-03-01T06:26:18;28.97;;;24.60;;
8881;SDS011;4477;48.736;9.176;2023-03-01T06:28:45;27.20;;;24.30;;
8881;SDS011;4477;48.736;9.176;2023-03-01T06:31:12;26.10;;;21.57;;
8881;SDS011;4477;48.736;9.176;2023-03-01T06:33:39;26.23;;;23.43;;
8881;SDS011;4477;48.736;9.176;2023-03-01T06:36:07;26.07;;;22.63;;
8881;SDS011;4477;48.736;9.176;2023-03-01T06:38:35;28.27;;;23.70;;
8881;SDS011;4477;48.736;9.176;2023-03-01T06:41:02;28.43;;;23.00;;
8881;SDS011;4477;48.736;9.176;2023-03-01T06:43:31;26.13;;;22.93;;
8881;SDS011;4477;48.736;9.176;2023-03-01T06:45:58;25.80;;;23.07;;
8881;SDS011;4477;48.736;9.176;2023-03-01T06:48:25;28.63;;;23.00;;
8881;SDS011;4477;48.736;9.176;2023-03-01T06:50:52;25.53;;;22.87;;
8881;SDS011;4477;48.736;9.176;2023-03-01T06:53:20;27.37;;;24.00;;
8881;SDS011;4477;48.736;9.176;2023-03-01T06:55:47;25.60;;;22.00;;
8881;SDS011;4477;48.736;9.176;2023-03-01T06:58:14;26.50;;;22.43;;
8881;SDS011;4477;48.736;9.176;2023-03-01T07:00:42;26.30;;;22.57;;
8881;SDS011;4477;48.736;9.176;2023-03-01T07:03:09;25.27;;;22.30;;
8881;SDS011;4477;48.736;9.176;2023-03-01T07:05:36;27.60;;;23.20;;
8881;SDS011;4477;48.736;9.176;2023-03-01T07:08:04;28.07;;;23.43;;
8881;SDS011;4477;48.736;9.176;2023-03-01T07:10:31;26.83;;;23.13;;
8881;SDS011;4477;48.736;9.176;2023-03-01T07:12:58;28.43;;;23.13;;
8881;SDS011;4477;48.736;9.176;2023-03-01T07:15:26;26.47;;;23.57;;
8881;SDS011;4477;48.736;9.176;2023-03-01T07:17:55;28.20;;;24.17;;
8881;SDS011;4477;48.736;9.176;2023-03-01T07:20:22;25.90;;;22.90;;
8881;SDS011;4477;48.736;9.176;2023-03-01T07:22:50;27.23;;;23.87;;
8881;SDS011;4477;48.736;9.176;2023-03-01T07:25:17;28.90;;;23.50;;
8881;SDS011;4477;48.736;9.176;2023-03-01T07:27:48;27.17;;;24.27;;
8881;SDS011;4477;48.736;9.176;2023-03-01T07:30:16;27.10;;;23.37;;
8881;SDS011;4477;48.736;9.176;2023-03-01T07:32:43;26.83;;;23.83;;
8881;SDS011;4477;48.736;9.176;2023-03-01T07:35:11;28.47;;;22.97;;
8881;SDS011;4477;48.736;9.176;2023-03-01T07:37:39;31.07;;;25.23;;
8881;SDS011;4477;48.736;9.176;2023-03-01T07:40:07;28.90;;;23.57;;
8881;SDS011;4477;48.736;9.176;2023-03-01T07:42:34;27.03;;;22.87;;
8881;SDS011;4477;48.736;9.176;2023-03-01T07:45:01;27.47;;;23.43;;
8881;SDS011;4477;48.736;9.176;2023-03-01T07:47:29;27.40;;;22.53;;
8881;SDS011;4477;48.736;9.176;2023-03-01T07:49:56;25.20;;;22.50;;
8881;SDS011;4477;48.736;9.176;2023-03-01T07:52:24;27.97;;;22.83;;
8881;SDS011;4477;48.736;9.176;2023-03-01T07:54:51;24.90;;;22.07;;
8881;SDS011;4477;48.736;9.176;2023-03-01T07:57:19;25.07;;;21.17;;
8881;SDS011;4477;48.736;9.176;2023-03-01T07:59:46;24.70;;;22.00;;
8881;SDS011;4477;48.736;9.176;2023-03-01T08:02:13;23.93;;;21.00;;
8881;SDS011;4477;48.736;9.176;2023-03-01T08:04:41;26.77;;;21.40;;
8881;SDS011;4477;48.736;9.176;2023-03-01T08:07:08;24.03;;;20.57;;
8881;SDS011;4477;48.736;9.176;2023-03-01T08:09:36;23.57;;;20.27;;
8881;SDS011;4477;48.736;9.176;2023-03-01T08:12:04;23.77;;;21.17;;
8881;SDS011;4477;48.736;9.176;2023-03-01T08:14:31;24.40;;;21.40;;
8881;SDS011;4477;48.736;9.176;2023-03-01T08:16:58;24.33;;;20.93;;
8881;SDS011;4477;48.736;9.176;2023-03-01T08:19:27;23.97;;;21.17;;
8881;SDS011;4477;48.736;9.176;2023-03-01T08:21:55;24.63;;;20.83;;
8881;SDS011;4477;48.736;9.176;2023-03-01T08:24:23;23.73;;;20.07;;
8881;SDS011;4477;48.736;9.176;2023-03-01T08:26:51;23.10;;;20.63;;
8881;SDS011;4477;48.736;9.176;2023-03-01T08:29:19;24.17;;;20.27;;
8881;SDS011;4477;48.736;9.176;2023-03-01T08:31:46;23.27;;;19.87;;
8881;SDS011;4477;48.736;9.176;2023-03-01T08:34:14;26.00;;;19.67;;
8881;SDS011;4477;48.736;9.176;2023-03-01T08:36:42;22.43;;;20.00;;
8881;SDS011;4477;48.736;9.176;2023-03-01T08:39:10;23.47;;;20.90;;
8881;SDS011;4477;48.736;9.176;2023-03-01T08:41:37;23.10;;;19.97;;
8881;SDS011;4477;48.736;9.176;2023-03-01T08:44:06;24.23;;;20.60;;
8881;SDS011;4477;48.736;9.176;2023-03-01T08:46:34;23.77;;;20.37;;
8881;SDS011;4477;48.736;9.176;2023-03-01T08:49:03;23.00;;;19.03;;
8881;SDS011;4477;48.736;9.176;2023-03-01T08:51:30;21.63;;;19.30;;
8881;SDS011;4477;48.736;9.176;2023-03-01T08:54:01;22.53;;;20.03;;
8881;SDS011;4477;48.736;9.176;2023-03-01T08:56:29;23.93;;;20.30;;
8881;SDS011;4477;48.736;9.176;2023-03-01T08:58:56;23.63;;;19.27;;
8881;SDS011;4477;48.736;9.176;2023-03-01T09:01:24;23.03;;;19.37;;
8881;SDS011;4477;48.736;9.176;2023-03-01T09:03:52;22.47;;;20.00;;
8881;SDS011;4477;48.736;9.176;2023-03-01T09:06:19;23.43;;;20.77;;
8881;SDS011;4477;48.736;9.176;2023-03-01T09:08:47;22.43;;;19.97;;
8881;SDS011;4477;48.736;9.176;2023-03-01T09:11:15;22.40;;;19.67;;
8881;SDS011;4477;48.736;9.176;2023-03-01T09:13:43;22.13;;;19.73;;
8881;SDS011;4477;48.736;9.176;2023-03-01T09:16:10;25.03;;;19.93;;
8881;SDS011;4477;48.736;9.176;2023-03-01T09:18:40;21.70;;;19.30;;
8881;SDS011;4477;48.736;9.176;2023-03-01T09:21:07;21.23;;;18.67;;
8881;SDS011;4477;48.736;9.176;2023-03-01T09:23:36;22.70;;;20.17;;
8881;SDS011;4477;48.736;9.176;2023-03-01T09:26:04;24.47;;;20.10;;
8881;SDS011;4477;48.736;9.176;2023-03-01T09:28:31;26.13;;;19.97;;
8881;SDS011;4477;48.736;9.176;2023-03-01T09:30:58;24.33;;;19.87;;
8881;SDS011;4477;48.736;9.176;2023-03-01T09:33:26;22.33;;;19.57;;
8881;SDS011;4477;48.736;9.176;2023-03-01T09:35:57;24.33;;;20.20;;
8881;SDS011;4477;48.736;9.176;2023-03-01T09:38:24;23.67;;;20.07;;
8881;SDS011;4477;48.736;9.176;2023-03-01T09:40:51;23.90;;;19.67;;
8881;SDS011;4477;48.736;9.176;2023-03-01T09:43:20;22.00;;;19.67;;
8881;SDS011;4477;48.736;9.176;2023-03-01T09:45:52;22.53;;;19.40;;
8881;SDS011;4477;48.736;9.176;2023-03-01T09:48:22;24.73;;;20.33;;
8881;SDS011;4477;48.736;9.176;2023-03-01T09:50:52;24.17;;;21.03;;
8881;SDS011;4477;48.736;9.176;2023-03-01T09:53:21;22.23;;;19.63;;
8881;SDS011;4477;48.736;9.176;2023-03-01T09:55:54;23.47;;;18.83;;
8881;SDS011;4477;48.736;9.176;2023-03-01T09:58:30;21.23;;;19.00;;
8881;SDS011;4477;48.736;9.176;2023-03-01T10:01:06;21.63;;;18.97;;
8881;SDS011;4477;48.736;9.176;2023-03-01T10:03:58;21.20;;;19.00;;
8881;SDS011;4477;48.736;9.176;2023-03-01T10:06:32;23.50;;;19.70;;
8881;SDS011;4477;48.736;9.176;2023-03-01T10:09:04;21.70;;;18.93;;
8881;SDS011;4477;48.736;9.176;2023-03-01T10:11:32;24.07;;;20.23;;
8881;SDS011;4477;48.736;9.176;2023-03-01T10:14:03;23.03;;;20.37;;
8881;SDS011;4477;48.736;9.176;2023-03-01T10:16:37;22.13;;;19.77;;
8881;SDS011;4477;48.736;9.176;2023-03-01T10:19:09;24.10;;;20.53;;
8881;SDS011;4477;48.736;9.176;2023-03-01T10:21:43;22.27;;;19.73;;
8881;SDS011;4477;48.736;9.176;2023-03-01T10:24:13;21.63;;;19.17;;
8881;SDS011;4477;48.736;9.176;2023-03-01T10:26:46;23.27;;;19.67;;
8881;SDS011;4477;48.736;9.176;2023-03-01T10:29:21;21.50;;;19.20;;
8881;SDS011;4477;48.736;9.176;2023-03-01T10:31:52;21.27;;;19.03;;
8881;SDS011;4477;48.736;9.176;2023-03-01T10:34:21;23.73;;;20.93;;
8881;SDS011;4477;48.736;9.176;2023-03-01T10:36:55;21.93;;;19.50;;
8881;SDS011;4477;48.736;9.176;2023-03-01T10:39:25;24.33;;;20.20;;
8881;SDS011;4477;48.736;9.176;2023-03-01T10:41:57;21.40;;;19.10;;
8881;SDS011;4477;48.736;9.176;2023-03-01T10:44:35;20.80;;;18.33;;
8881;SDS011;4477;48.736;9.176;2023-03-01T10:47:05;21.30;;;19.03;;
8881;SDS011;4477;48.736;9.176;2023-03-01T10:49:42;21.57;;;19.23;;
8881;SDS011;4477;48.736;9.176;2023-03-01T10:52:22;20.63;;;18.50;;
8881;SDS011;4477;48.736;9.176;2023-03-01T10:54:53;22.20;;;19.80;;
8881;SDS011;4477;48.736;9.176;2023-03-01T10:57:27;21.83;;;19.03;;
8881;SDS011;4477;48.736;9.176;2023-03-01T11:00:01;23.00;;;19.47;;
8881;SDS011;4477;48.736;9.176;2023-03-01T11:02:45;21.30;;;19.17;;
8881;SDS011;4477;48.736;9.176;2023-03-01T11:05:16;20.93;;;18.73;;
8881;SDS011;4477;48.736;9.176;2023-03-01T11:07:49;22.47;;;19.53;;
8881;SDS011;4477;48.736;9.176;2023-03-01T11:10:18;20.57;;;18.23;;
8881;SDS011;4477;48.736;9.176;2023-03-01T11:12:47;22.63;;;19.50;;
8881;SDS011;4477;48.736;9.176;2023-03-01T11:15:21;20.70;;;18.50;;
8881;SDS011;4477;48.736;9.176;2023-03-01T11:17:50;20.33;;;18.23;;
8881;SDS011;4477;48.736;9.176;2023-03-01T11:20:20;21.93;;;19.53;;
8881;SDS011;4477;48.736;9.176;2023-03-01T11:22:52;20.20;;;17.97;;
8881;SDS011;4477;48.736;9.176;2023-03-01T11:25:23;20.93;;;18.70;;
8881;SDS011;4477;48.736;9.176;2023-03-01T11:27:52;21.33;;;19.13;;
8881;SDS011;4477;48.736;9.176;2023-03-01T11:30:21;20.10;;;18.00;;
8881;SDS011;4477;48.736;9.176;2023-03-01T11:32:53;20.83;;;18.40;;
8881;SDS011;4477;48.736;9.176;2023-03-01T11:35:23;20.20;;;17.97;;
8881;SDS011;4477;48.736;9.176;2023-03-01T11:37:56;19.87;;;17.77;;
8881;SDS011;4477;48.736;9.176;2023-03-01T11:40:31;19.53;;;17.43;;
8881;SDS011;4477;48.736;9.176;2023-03-01T11:43:05;21.00;;;17.83;;
8881;SDS011;4477;48.736;9.176;2023-03-01T11:45:43;22.17;;;17.17;;
8881;SDS011;4477;48.736;9.176;2023-03-01T11:48:43;19.40;;;17.40;;
8881;SDS011;4477;48.736;9.176;2023-03-01T11:51:20;20.97;;;18.33;;
8881;SDS011;4477;48.736;9.176;2023-03-01T11:53:53;19.67;;;17.67;;
8881;SDS011;4477;48.736;9.176;2023-03-01T11:56:31;20.07;;;18.03;;
8881;SDS011;4477;48.736;9.176;2023-03-01T12:02:20;19.87;;;17.60;;
8881;SDS011;4477;48.736;9.176;2023-03-01T12:05:17;18.97;;;17.07;;
8881;SDS011;4477;48.736;9.176;2023-03-01T12:07:54;21.40;;;17.13;;
8881;SDS011;4477;48.736;9.176;2023-03-01T12:10:26;19.93;;;17.97;;
8881;SDS011;4477;48.736;9.176;2023-03-01T12:13:02;20.73;;;17.17;;
8881;SDS011;4477;48.736;9.176;2023-03-01T12:18:54;19.10;;;17.20;;
8881;SDS011;4477;48.736;9.176;2023-03-01T12:21:38;18.43;;;16.53;;
8881;SDS011;4477;48.736;9.176;2023-03-01T12:24:22;18.93;;;17.00;;
8881;SDS011;4477;48.736;9.176;2023-03-01T12:27:08;19.13;;;17.13;;
8881;SDS011;4477;48.736;9.176;2023-03-01T12:29:49;19.27;;;16.23;;
8881;SDS011;4477;48.736;9.176;2023-03-01T12:32:24;19.13;;;16.93;;
8881;SDS011;4477;48.736;9.176;2023-03-01T12:35:01;20.60;;;16.30;;
8881;SDS011;4477;48.736;9.176;2023-03-01T12:37:32;18.50;;;16.57;;
8881;SDS011;4477;48.736;9.176;2023-03-01T12:40:13;18.20;;;16.33;;
8881;SDS011;4477;48.736;9.176;2023-03-01T12:42:53;17.60;;;15.67;;
8881;SDS011;4477;48.736;9.176;2023-03-01T12:45:38;18.80;;;15.90;;
8881;SDS011;4477;48.736;9.176;2023-03-01T12:48:20;18.10;;;16.20;;
8881;SDS011;4477;48.736;9.176;2023-03-01T12:50:57;18.07;;;16.17;;
8881;SDS011;4477;48.736;9.176;2023-03-01T12:53:28;18.20;;;16.37;;
8881;SDS011;4477;48.736;9.176;2023-03-01T12:55:58;17.37;;;15.57;;
8881;SDS011;4477;48.736;9.176;2023-03-01T12:58:29;19.43;;;15.73;;
8881;SDS011;4477;48.736;9.176;2023-03-01T13:01:04;17.70;;;15.60;;
8881;SDS011;4477;48.736;9.176;2023-03-01T13:06:40;16.70;;;15.00;;
8881;SDS011;4477;48.736;9.176;2023-03-01T13:09:13;16.97;;;15.20;;
8881;SDS011;4477;48.736;9.176;2023-03-01T13:11:46;17.20;;;15.40;;
8881;SDS011;4477;48.736;9.176;2023-03-01T13:20:17;17.50;;;15.80;;
8881;SDS011;4477;48.736;9.176;2023-03-01T13:23:01;16.30;;;14.70;;
8881;SDS011;4477;48.736;9.176;2023-03-01T13:25:33;16.20;;;14.57;;
8881;SDS011;4477;48.736;9.176;2023-03-01T13:31:55;15.73;;;14.10;;
8881;SDS011;4477;48.736;9.176;2023-03-01T13:34:45;16.03;;;14.37;;
8881;SDS011;4477;48.736;9.176;2023-03-01T13:37:37;15.90;;;14.33;;
8881;SDS011;4477;48.736;9.176;2023-03-01T13:40:07;15.33;;;13.83;;
8881;SDS011;4477;48.736;9.176;2023-03-01T13:46:01;14.47;;;13.07;;
8881;SDS011;4477;48.736;9.176;2023-03-01T13:48:34;16.03;;;13.97;;
8881;SDS011;4477;48.736;9.176;2023-03-01T13:51:02;18.93;;;15.53;;
8881;SDS011;4477;48.736;9.176;2023-03-01T13:53:31;15.37;;;13.77;;
8881;SDS011;4477;48.736;9.176;2023-03-01T13:56:02;16.27;;;14.47;;
8881;SDS011;4477;48.736;9.176;2023-03-01T13:58:46;18.50;;;16.43;;
8881;SDS011;4477;48.736;9.176;2023-03-01T14:01:24;17.60;;;15.70;;
8881;SDS011;4477;48.736;9.176;2023-03-01T14:03:53;17.50;;;15.70;;
8881;SDS011;4477;48.736;9.176;2023-03-01T14:06:21;21.10;;;16.27;;
8881;SDS011;4477;48.736;9.176;2023-03-01T14:08:50;18.67;;;16.07;;
8881;SDS011;4477;48.736;9.176;2023-03-01T14:11:37;18.80;;;16.80;;
8881;SDS011;4477;48.736;9.176;2023-03-01T14:14:43;19.00;;;16.97;;
8881;SDS011;4477;48.736;9.176;2023-03-01T14:17:21;21.40;;;17.53;;
8881;SDS011;4477;48.736;9.176;2023-03-01T14:20:17;22.53;;;18.40;;
8881;SDS011;4477;48.736;9.176;2023-03-01T14:22:46;20.23;;;17.73;;
8881;SDS011;4477;48.736;9.176;2023-03-01T14:25:23;25.93;;;17.53;;
8881;SDS011;4477;48.736;9.176;2023-03-01T14:28:00;36.07;;;18.37;;
8881;SDS011;4477;48.736;9.176;2023-03-01T14:30:32;20.87;;;18.17;;
8881;SDS011;4477;48.736;9.176;2023-03-01T14:33:04;19.70;;;17.20;;
8881;SDS011;4477;48.736;9.176;2023-03-01T14:35:51;20.37;;;18.27;;
8881;SDS011;4477;48.736;9.176;2023-03-01T14:38:20;19.43;;;17.33;;
8881;SDS011;4477;48.736;9.176;2023-03-01T14:40:47;20.53;;;17.57;;
8881;SDS011;4477;48.736;9.176;2023-03-01T14:43:21;18.97;;;17.07;;
8881;SDS011;4477;48.736;9.176;2023-03-01T14:45:52;20.27;;;17.83;;
8881;SDS011;4477;48.736;9.176;2023-03-01T14:48:19;21.23;;;18.90;;
8881;SDS011;4477;48.736;9.176;2023-03-01T14:50:46;20.50;;;18.37;;
8881;SDS011;4477;48.736;9.176;2023-03-01T14:53:16;21.53;;;18.50;;
8881;SDS011;4477;48.736;9.176;2023-03-01T14:55:45;19.87;;;17.70;;
8881;SDS011;4477;48.736;9.176;2023-03-01T14:58:15;19.03;;;17.07;;
8881;SDS011;4477;48.736;9.176;2023-03-01T15:00:46;19.13;;;17.07;;
8881;SDS011;4477;48.736;9.176;2023-03-01T15:03:19;19.53;;;17.00;;
8881;SDS011;4477;48.736;9.176;2023-03-01T15:05:50;19.30;;;17.20;;
8881;SDS011;4477;48.736;9.176;2023-03-01T15:08:19;21.20;;;17.37;;
8881;SDS011;4477;48.736;9.176;2023-03-01T15:10:57;20.20;;;16.60;;
8881;SDS011;4477;48.736;9.176;2023-03-01T15:13:26;19.00;;;17.10;;
8881;SDS011;4477;48.736;9.176;2023-03-01T15:16:01;21.50;;;17.13;;
8881;SDS011;4477;48.736;9.176;2023-03-01T15:18:33;22.13;;;17.03;;
8881;SDS011;4477;48.736;9.176;2023-03-01T15:21:05;18.57;;;16.57;;
8881;SDS011;4477;48.736;9.176;2023-03-01T15:23:33;20.27;;;17.50;;
8881;SDS011;4477;48.736;9.176;2023-03-01T15:26:02;22.50;;;18.70;;
8881;SDS011;4477;48.736;9.176;2023-03-01T15:28:30;19.50;;;17.47;;